»·PEaware :: N104CT KAPA-KASE

N104CT :: KAPA-KASE

FLIGHT INFORMATION

Flight Status: Arrived
Operator: Privately registered:
United States
More flights under this callsign
Pilot: Eric M. (17640)
Aircraft: CESSNA 750 CITATION 10
(C750)
More flights by this aircraft type
Origin: KAPA Centennial
United States
Destination: KASE Aspen-Pitkin Co/Sardy
United States
More flights between these airports :: More routes between these airports
Route: +CONNR4 BULDG AJAXX
File this flight plan on PilotEdge
Remarks:
Altitude:
(Current/Filed)
22,000ft
Speed:
(Current/Filed)
450kts
Departed: 04-Jan-18 08:28 PM
Arrived: 04-Jan-18 08:53 PM
Distance/Time
Traveled:
96nm/0:25
Distance/Time
To Go:
Arrived

Flight Plot

Page will automatically refresh every two minutes.

Flight plan parsing failed; only flown route is shown


Map Options




Map Legend


Flown Route
Filed Route
Departure Airport
Arrival Airport
Navaid (VOR, NDB)
Fix

Horizontal Profiles

Position Reports

Time Latitude Longitude Heading Altitude Ground
Speed
04-Jan-18 20:06 39.563845 -104.847322 267 5887ft 0kts
04-Jan-18 20:07 39.563845 -104.847324 267 5887ft 0kts
04-Jan-18 20:08 39.563845 -104.847325 267 5887ft 0kts
04-Jan-18 20:09 39.563845 -104.847327 267 5887ft 0kts
04-Jan-18 20:10 39.563845 -104.847329 267 5887ft 0kts
04-Jan-18 20:11 39.563845 -104.847330 267 5887ft 0kts
04-Jan-18 20:12 39.563845 -104.847332 267 5887ft 0kts
04-Jan-18 20:13 39.563845 -104.847334 267 5887ft 0kts
04-Jan-18 20:14 39.563845 -104.847335 267 5887ft 0kts
04-Jan-18 20:15 39.563845 -104.847337 267 5887ft 0kts
04-Jan-18 20:16 39.563845 -104.847338 267 5887ft 0kts
04-Jan-18 20:17 39.563845 -104.847339 267 5887ft 0kts
04-Jan-18 20:18 39.563845 -104.847339 267 5887ft 0kts
04-Jan-18 20:19 39.563845 -104.847341 267 5887ft 0kts
04-Jan-18 20:20 39.563844 -104.847342 267 5887ft 0kts
04-Jan-18 20:21 39.563844 -104.847344 267 5887ft 0kts
04-Jan-18 20:22 39.563844 -104.847346 267 5887ft 0kts
04-Jan-18 20:23 39.564009 -104.848193 290 5887ft 4kts
04-Jan-18 20:24 39.566809 -104.849241 359 5887ft 7kts
04-Jan-18 20:25 39.571686 -104.849472 357 5887ft 10kts
04-Jan-18 20:26 39.577699 -104.849760 356 5887ft 12kts
04-Jan-18 20:27 39.578869 -104.849807 357 5887ft 10kts
04-Jan-18 20:28 39.579073 -104.849994 164 5887ft 0kts
04-Jan-18 20:29 39.578449 -104.850150 243 5887ft 0kts
04-Jan-18 20:30 39.579072 -104.850768 251 5887ft 0kts
04-Jan-18 20:31 39.579071 -104.850770 251 5887ft 0kts
04-Jan-18 20:32 39.578742 -104.851215 182 5887ft 3kts
04-Jan-18 20:33 39.578619 -104.851216 178 5887ft 10kts
04-Jan-18 20:34 39.545052 -104.850057 177 6428ft 210kts
04-Jan-18 20:35 39.475206 -104.845186 177 7891ft 298kts
04-Jan-18 20:36 39.407356 -104.847342 180 8123ft 203kts
04-Jan-18 20:37 39.388841 -104.915610 285 9693ft 266kts
04-Jan-18 20:38 39.426009 -105.007214 299 12475ft 299kts
04-Jan-18 20:39 39.467007 -105.103196 298 15465ft 312kts
04-Jan-18 20:40 39.508835 -105.204265 299 18184ft 325kts
04-Jan-18 20:41 39.552842 -105.310264 299 20792ft 341kts
04-Jan-18 20:42 39.600007 -105.424781 299 22244ft 385kts
04-Jan-18 20:43 39.651283 -105.549400 298 22349ft 399kts
04-Jan-18 20:44 39.698504 -105.681006 279 22371ft 407kts
04-Jan-18 20:45 39.682850 -105.827237 259 22383ft 414kts
04-Jan-18 20:46 39.663870 -105.974594 264 22388ft 413kts
04-Jan-18 20:47 39.648172 -106.122223 263 22386ft 413kts
04-Jan-18 20:48 39.631198 -106.269594 263 22387ft 413kts
04-Jan-18 20:49 39.610054 -106.416405 258 22391ft 414kts
04-Jan-18 20:50 39.586360 -106.546772 260 22386ft 334kts
04-Jan-18 20:51 39.565675 -106.670253 260 21035ft 356kts
04-Jan-18 20:52 39.543753 -106.796750 259 19068ft 354kts
04-Jan-18 20:53 39.523844 -106.910723 259 17144ft 315kts
04-Jan-18 20:54 39.461060 -106.973549 188 14579ft 300kts
04-Jan-18 20:55 39.383817 -106.946403 159 13018ft 283kts
04-Jan-18 20:56 39.324893 -106.917436 162 11790ft 194kts
04-Jan-18 20:57 39.275988 -106.894389 160 9235ft 173kts
04-Jan-18 20:58 39.235616 -106.874755 160 7882ft 130kts
04-Jan-18 20:59 39.223311 -106.868150 75 7824ft 4kts
04-Jan-18 21:00 39.223088 -106.867141 281 7824ft 0kts
04-Jan-18 21:01 39.223088 -106.867142 281 7824ft 0kts

Navigation Log

Ident Type
Flight plan parsing failed, navigation log unavailable